.
WxDataArchive / Data Records for 2014-07-23
2014-07-22 July 2014 2014-07-24

Data Records for Wednesday, 23 July 2014

Time	Temp	Chill	HIndex	Humid	Dewpt	 Wind 	HiWind	WindDir	Rain 	Barom
-----	----	-----	------	-----	-----	------	------	-------	-----	-----
00:00	79.6	79.6	82.0	67	67.7	0	2	270	0.00	29.933 
00:05	79.4	79.4	81.8	68	67.9	0	2	270	0.00	29.933 
00:10	79.4	79.4	81.9	69	68.3	0	2	270	0.00	29.933 
00:15	79.2	79.2	81.6	69	68.1	0	1	270	0.00	29.936 
00:20	79.2	79.2	81.6	69	68.1	0	1	270	0.00	29.936 
00:25	79.0	79.0	81.4	70	68.4	0	1	270	0.00	29.936 
00:30	79.0	79.0	81.4	70	68.4	0	2	270	0.00	29.940 
00:35	79.0	79.0	81.4	70	68.4	0	1	270	0.00	29.940 
00:40	79.0	79.0	81.5	71	68.8	0	1	270	0.00	29.940 
00:45	78.8	78.8	81.2	71	68.6	0	1	270	0.00	29.940 
00:50	78.8	78.8	81.2	71	68.6	0	2	270	0.00	29.940 
00:55	79.0	79.0	81.5	71	68.8	0	1	270	0.00	29.940 
01:00	79.0	79.0	81.5	71	68.8	0	1	270	0.00	29.933 
01:05	79.0	79.0	81.6	72	69.2	0	2	270	0.00	29.933 
01:10	79.0	79.0	81.6	72	69.2	0	2	270	0.00	29.933 
01:15	79.0	79.0	81.6	72	69.2	0	2	270	0.00	29.935 
01:20	79.0	79.0	81.6	72	69.2	0	2	270	0.00	29.935 
01:25	79.0	79.0	81.6	72	69.2	1	3	270	0.00	29.935 
01:30	79.2	79.2	81.9	72	69.4	0	2	270	0.00	29.947 
01:35	79.2	79.2	81.9	72	69.4	0	2	270	0.00	29.947 
01:40	79.2	79.2	81.9	72	69.4	1	4	270	0.00	29.947 
01:45	79.2	79.2	81.9	72	69.4	0	2	270	0.00	29.946 
01:50	79.0	79.0	81.6	72	69.2	1	4	270	0.00	29.946 
01:55	79.0	79.0	81.6	72	69.2	1	4	270	0.00	29.946 
02:00	78.8	78.8	81.3	73	69.4	1	4	270	0.00	29.933 
02:05	78.6	78.6	81.1	75	70.0	0	4	270	0.00	29.933 
02:10	78.3	78.3	80.6	75	69.7	1	4	270	0.00	29.933 
02:15	77.9	77.9	80.1	77	70.1	1	4	270	0.01	29.922 
02:20	77.4	77.4	79.2	80	70.7	0	3	270	0.02	29.922 
02:25	76.5	76.5	77.6	83	70.9	0	1	270	0.03	29.922 
02:30	75.8	75.8	76.3	84	70.6	0	1	270	0.00	29.904 
02:35	75.3	75.3	75.2	86	70.8	0	1	270	0.00	29.904 
02:40	74.9	74.9	74.9	87	70.8	0	1	270	0.00	29.904 
02:45	74.7	74.7	74.7	88	70.9	1	2	270	0.00	29.904 
02:50	74.6	74.6	74.6	88	70.8	2	3	270	0.00	29.904 
02:55	74.6	74.6	74.6	88	70.8	1	3	270	0.00	29.904 
03:00	74.4	74.4	74.4	88	70.6	2	4	270	0.00	29.904 
03:05	74.4	74.4	74.4	89	70.9	2	5	270	0.00	29.904 
03:10	74.4	74.4	74.4	89	70.9	2	5	270	0.00	29.904 
03:15	74.2	74.2	74.2	88	70.4	3	5	315	0.00	29.932 
03:20	74.2	74.2	74.2	85	69.4	2	5	292	0.00	29.932 
03:25	74.2	74.2	74.2	83	68.7	1	3	292	0.00	29.932 
03:30	74.2	74.2	74.2	80	67.6	1	4	292	0.00	29.936 
03:35	74.0	74.0	74.0	77	66.3	0	2	292	0.00	29.936 
03:40	73.9	73.9	73.9	75	65.5	0	2	292	0.00	29.936 
03:45	73.9	73.9	73.9	76	65.8	0	1	292	0.00	29.933 
03:50	73.7	73.7	73.7	76	65.6	0	4	315	0.00	29.933 
03:55	73.5	73.5	73.5	76	65.5	0	2	315	0.01	29.933 
04:00	73.2	73.2	73.2	77	65.5	0	3	315	0.00	29.915 
04:05	72.8	72.8	72.8	77	65.2	0	3	315	0.00	29.915 
04:10	72.5	72.5	72.5	79	65.6	0	0	---	0.00	29.915 
04:15	72.3	72.3	72.3	81	66.1	0	0	---	0.00	29.915 
04:20	72.0	72.0	72.0	82	66.2	0	0	---	0.00	29.915 
04:25	71.6	71.6	71.6	83	66.2	0	1	315	0.00	29.915 
04:30	71.5	71.5	71.5	83	66.1	0	1	315	0.00	29.904 
04:35	71.3	71.3	71.3	84	66.2	0	1	315	0.00	29.904 
04:40	71.1	71.1	71.1	83	65.7	0	1	315	0.00	29.904 
04:45	70.9	70.9	70.9	83	65.5	0	1	315	0.00	29.922 
04:50	70.9	70.9	70.9	83	65.5	0	1	315	0.01	29.922 
04:55	70.8	70.8	70.8	83	65.4	0	1	315	0.00	29.922 
05:00	70.8	70.8	70.8	83	65.4	0	1	315	0.00	29.910 
05:05	70.8	70.8	70.8	84	65.7	0	1	315	0.00	29.910 
05:10	70.6	70.6	70.6	84	65.5	0	1	315	0.00	29.910 
05:15	70.6	70.6	70.6	84	65.5	0	1	315	0.00	29.924 
05:20	70.4	70.4	70.4	84	65.3	0	1	315	0.00	29.924 
05:25	70.4	70.4	70.4	84	65.3	0	1	315	0.00	29.924 
05:30	70.4	70.4	70.4	84	65.3	0	1	315	0.00	29.925 
05:35	70.4	70.4	70.4	84	65.3	0	1	315	0.00	29.925 
05:40	70.6	70.6	70.6	83	65.2	0	1	315	0.00	29.925 
05:45	70.6	70.6	70.6	83	65.2	0	1	315	0.00	29.923 
05:50	70.8	70.8	70.8	82	65.0	0	2	315	0.00	29.923 
05:55	70.9	70.9	70.9	82	65.1	1	3	315	0.00	29.923 
06:00	71.1	71.1	71.1	81	65.0	1	7	270	0.00	29.937 
06:05	71.1	71.1	71.1	82	65.3	1	4	270	0.01	29.937 
06:10	70.8	70.8	70.8	83	65.4	1	3	270	0.00	29.937 
06:15	70.4	70.4	70.4	84	65.3	0	2	270	0.01	29.930 
06:20	70.1	70.1	70.1	85	65.4	0	1	270	0.01	29.930 
06:25	69.8	69.8	69.8	86	65.4	1	3	270	0.01	29.930 
06:30	69.4	69.4	69.4	88	65.7	1	4	270	0.00	29.946 
06:35	69.1	69.1	69.1	88	65.4	0	1	292	0.01	29.946 
06:40	68.9	68.9	68.9	89	65.5	0	2	292	0.00	29.946 
06:45	68.9	68.9	68.9	90	65.8	0	1	292	0.00	29.961 
06:50	68.8	68.8	68.8	90	65.7	0	1	292	0.00	29.961 
06:55	68.6	68.6	68.6	91	65.9	0	0	---	0.00	29.961 
07:00	68.4	68.4	68.4	91	65.7	0	0	---	0.00	29.973 
07:05	68.6	68.6	68.6	92	66.2	0	1	292	0.00	29.973 
07:10	68.6	68.6	68.6	92	66.2	1	3	292	0.00	29.973 
07:15	68.4	68.4	68.4	92	66.0	0	2	292	0.00	29.957 
07:20	68.4	68.4	68.4	92	66.0	0	0	---	0.00	29.957 
07:25	68.3	68.3	68.3	92	65.9	0	0	---	0.00	29.957 
07:30	68.4	68.4	68.4	93	66.3	0	0	---	0.00	29.946 
07:35	68.4	68.4	68.4	93	66.3	0	1	292	0.00	29.946 
07:40	68.4	68.4	68.4	93	66.3	0	0	---	0.00	29.946 
07:45	68.6	68.6	68.6	93	66.5	0	0	---	0.00	29.943 
07:50	68.6	68.6	68.6	93	66.5	0	0	---	0.00	29.943 
07:55	68.6	68.6	68.6	93	66.5	0	0	---	0.00	29.943 
08:00	68.6	68.6	68.6	93	66.5	0	0	---	0.00	29.944 
08:05	68.6	68.6	68.6	93	66.5	0	0	---	0.00	29.944 
08:10	68.8	68.8	68.8	93	66.7	0	0	---	0.00	29.944 
08:15	68.9	68.9	68.9	93	66.8	0	0	---	0.00	29.958 
08:20	69.1	69.1	69.1	93	67.0	0	0	---	0.00	29.958 
08:25	69.3	69.3	69.3	94	67.5	0	0	---	0.00	29.958 
08:30	69.3	69.3	69.3	93	67.2	0	0	---	0.00	29.959 
08:35	69.3	69.3	69.3	93	67.2	0	0	---	0.00	29.959 
08:40	69.4	69.4	69.4	93	67.3	0	0	---	0.00	29.959 
08:45	69.4	69.4	69.4	93	67.3	0	0	---	0.00	29.970 
08:50	69.4	69.4	69.4	93	67.3	0	1	292	0.00	29.970 
08:55	69.6	69.6	69.6	93	67.5	0	0	---	0.00	29.970 
09:00	69.6	69.6	69.6	93	67.5	0	1	292	0.00	29.979 
09:05	69.8	69.8	69.8	93	67.7	0	0	---	0.00	29.979 
09:10	69.8	69.8	69.8	93	67.7	0	1	292	0.00	29.979 
09:15	69.6	69.6	69.6	93	67.5	0	1	292	0.00	29.979 
09:20	69.6	69.6	69.6	93	67.5	0	1	292	0.00	29.979 
09:25	69.6	69.6	69.6	93	67.5	0	2	292	0.00	29.979 
09:30	69.6	69.6	69.6	92	67.2	0	2	292	0.00	29.972 
09:35	69.6	69.6	69.6	92	67.2	0	1	292	0.00	29.972 
09:40	69.8	69.8	69.8	92	67.4	0	1	292	0.00	29.972 
09:45	69.8	69.8	69.8	92	67.4	0	1	292	0.00	29.964 
09:50	69.8	69.8	69.8	92	67.4	0	1	292	0.00	29.964 
09:55	69.9	69.9	69.9	92	67.5	0	1	292	0.00	29.964 
10:00	70.1	70.1	70.1	92	67.7	0	1	292	0.00	29.973 
10:05	70.1	70.1	70.1	92	67.7	0	1	292	0.00	29.973 
10:10	70.3	70.3	70.3	92	67.9	0	1	292	0.00	29.973 
10:15	70.4	70.4	70.4	92	68.0	0	1	292	0.00	29.969 
10:20	70.6	70.6	70.6	91	67.8	0	0	---	0.00	29.969 
10:25	70.6	70.6	70.6	91	67.8	0	0	---	0.00	29.969 
10:30	70.6	70.6	70.6	91	67.8	0	0	---	0.00	29.969 
10:35	70.4	70.4	70.4	90	67.3	0	2	292	0.00	29.969 
10:40	70.6	70.6	70.6	90	67.5	0	2	292	0.00	29.969 
10:45	70.8	70.8	70.8	90	67.7	0	1	292	0.00	29.975 
10:50	70.8	70.8	70.8	90	67.7	0	1	292	0.00	29.975 
10:55	70.8	70.8	70.8	89	67.4	0	1	292	0.00	29.975 
11:00	70.8	70.8	70.8	89	67.4	0	2	292	0.00	29.983 
11:05	70.8	70.8	70.8	89	67.4	0	2	292	0.00	29.983 
11:10	70.8	70.8	70.8	88	67.1	0	2	292	0.00	29.983 
11:15	70.8	70.8	70.8	88	67.1	0	3	292	0.00	29.988 
11:20	70.8	70.8	70.8	88	67.1	0	2	292	0.00	29.988 
11:25	70.8	70.8	70.8	88	67.1	0	1	292	0.00	29.988 
11:30	70.8	70.8	70.8	88	67.1	0	1	292	0.00	29.996 
11:35	70.8	70.8	70.8	88	67.1	0	0	---	0.00	29.996 
11:40	70.9	70.9	70.9	88	67.2	0	0	---	0.00	29.996 
11:45	71.1	71.1	71.1	88	67.4	0	1	292	0.00	30.001 
11:50	71.1	71.1	71.1	88	67.4	0	1	292	0.00	30.001 
11:55	71.3	71.3	71.3	87	67.2	0	3	292	0.00	30.001 
12:00	71.1	71.1	71.1	87	67.0	1	4	292	0.00	30.009 
12:05	70.3	70.3	70.3	86	65.9	2	5	315	0.00	30.009 
12:10	69.8	69.8	69.8	86	65.4	1	4	315	0.00	30.009 
12:15	69.3	69.3	69.3	86	64.9	2	4	315	0.00	30.012 
12:20	68.9	68.9	68.9	87	64.9	1	3	315	0.00	30.012 
12:25	68.6	68.6	68.6	87	64.6	0	3	315	0.00	30.012 
12:30	68.4	68.4	68.4	87	64.4	0	3	315	0.00	30.017 
12:35	68.3	68.3	68.3	87	64.3	1	4	315	0.00	30.017 
12:40	68.1	68.1	68.1	88	64.4	1	4	292	0.00	30.017 
12:45	67.9	67.9	67.9	88	64.2	1	4	292	0.00	30.023 
12:50	67.9	67.9	67.9	88	64.2	1	4	292	0.00	30.023 
12:55	67.9	67.9	67.9	88	64.2	1	3	292	0.00	30.023 
13:00	67.9	67.9	67.9	87	63.9	1	5	292	0.00	30.025 
13:05	67.9	67.9	67.9	87	63.9	0	3	292	0.00	30.025 
13:10	67.9	67.9	67.9	87	63.9	1	4	292	0.00	30.025 
13:15	67.9	67.9	67.9	86	63.5	1	3	292	0.00	30.021 
13:20	67.9	67.9	67.9	86	63.5	1	4	292	0.00	30.021 
13:25	67.9	67.9	67.9	85	63.2	1	3	292	0.00	30.021 
13:30	67.8	67.8	67.8	85	63.1	2	4	315	0.00	30.028 
13:35	67.8	67.8	67.8	85	63.1	1	3	315	0.00	30.028 
13:40	67.9	67.9	67.9	84	62.9	1	3	315	0.00	30.028 
13:45	68.1	68.1	68.1	84	63.1	1	3	315	0.00	30.022 
13:50	68.1	68.1	68.1	83	62.7	1	3	315	0.00	30.022 
13:55	68.3	68.3	68.3	83	62.9	1	4	315	0.00	30.022 
14:00	68.3	68.3	68.3	82	62.6	1	5	315	0.00	30.024 
14:05	68.4	68.4	68.4	81	62.3	2	6	292	0.00	30.024 
14:10	68.6	68.6	68.6	81	62.5	2	5	315	0.00	30.024 
14:15	68.8	68.8	68.8	81	62.7	1	5	315	0.00	30.017 
14:20	68.9	68.9	68.9	81	62.8	1	4	338	0.00	30.017 
14:25	69.1	69.1	69.1	79	62.3	2	10	338	0.00	30.017 
14:30	69.3	69.3	69.3	79	62.5	1	3	338	0.00	30.018 
14:35	69.4	69.4	69.4	79	62.6	1	3	338	0.00	30.018 
14:40	69.6	69.6	69.6	78	62.4	1	3	338	0.00	30.018 
14:45	69.9	69.9	69.9	78	62.7	0	2	338	0.00	30.014 
14:50	70.3	70.3	70.3	77	62.7	2	4	315	0.00	30.014 
14:55	70.6	70.6	70.6	76	62.7	1	4	315	0.00	30.014 
15:00	70.8	70.8	70.8	77	63.2	1	4	315	0.00	30.009 
15:05	70.9	70.9	70.9	75	62.6	2	5	292	0.00	30.009 
15:10	71.1	71.1	71.1	74	62.4	1	5	315	0.00	30.009 
15:15	71.5	71.5	71.5	74	62.8	1	5	338	0.00	29.998 
15:20	71.8	71.8	71.8	74	63.1	0	3	315	0.00	29.998 
15:25	72.5	72.5	72.5	72	62.9	1	3	0	0.00	29.998 
15:30	73.2	73.2	73.2	70	62.8	2	5	338	0.00	29.990 
15:35	73.9	73.9	73.9	70	63.5	1	4	315	0.00	29.990 
15:40	74.6	74.6	74.6	67	62.9	1	4	315	0.00	29.990 
15:45	74.7	74.7	74.7	68	63.4	2	6	315	0.00	29.990 
15:50	75.1	75.1	77.1	65	62.5	1	4	135	0.00	29.990 
15:55	75.4	75.4	77.4	65	62.8	2	5	292	0.00	29.990 
16:00	76.0	76.0	77.9	64	62.9	1	5	22	0.00	29.988 
16:05	76.0	76.0	78.0	62	62.0	1	4	292	0.00	29.988 
16:10	75.6	75.6	77.6	63	62.1	1	3	292	0.00	29.988 
16:15	75.8	75.8	77.8	62	61.8	2	4	292	0.00	29.984 
16:20	76.0	76.0	78.0	60	61.1	1	4	292	0.00	29.984 
16:25	76.0	76.0	78.0	61	61.6	1	4	315	0.00	29.984 
16:30	76.5	76.5	78.4	62	62.5	1	6	292	0.00	29.981 
16:35	76.3	76.3	78.2	60	61.4	1	4	338	0.00	29.981 
16:40	75.6	75.6	77.7	62	61.6	1	4	338	0.00	29.981 
16:45	75.3	75.3	77.5	60	60.4	2	4	292	0.00	29.982 
16:50	75.8	75.8	77.9	60	60.9	0	3	292	0.00	29.982 
16:55	75.8	75.8	77.8	61	61.4	1	4	292	0.00	29.982 
17:00	75.3	75.3	77.5	60	60.4	1	3	292	0.00	29.988 
17:05	75.1	75.1	77.4	61	60.7	1	4	292	0.00	29.988 
17:10	75.1	75.1	77.4	61	60.7	1	4	292	0.00	29.988 
17:15	75.3	75.3	77.5	60	60.4	1	4	292	0.00	29.982 
17:20	75.8	75.8	77.9	60	60.9	1	4	112	0.00	29.982 
17:25	76.7	76.7	78.5	59	61.3	1	5	112	0.00	29.982 
17:30	77.2	77.2	78.9	57	60.8	1	3	90	0.00	29.984 
17:35	76.8	76.8	78.6	58	60.9	1	5	112	0.00	29.984 
17:40	76.1	76.1	78.1	58	60.2	1	3	338	0.00	29.984 
17:45	76.0	76.0	78.0	58	60.1	1	3	0	0.00	29.984 
17:50	75.6	75.6	77.8	58	59.8	1	4	0	0.00	29.984 
17:55	75.3	75.3	77.6	58	59.5	1	5	338	0.00	29.984 
18:00	75.3	75.3	77.6	58	59.5	1	6	90	0.00	29.982 
18:05	75.4	75.4	77.6	60	60.5	1	3	338	0.00	29.982 
18:10	75.8	75.8	77.9	58	59.9	2	5	315	0.00	29.982 
18:15	75.4	75.4	77.7	58	59.6	1	5	338	0.00	29.986 
18:20	75.1	75.1	77.5	57	58.8	1	5	315	0.00	29.986 
18:25	74.6	74.6	74.6	58	58.8	1	4	315	0.00	29.986 
18:30	74.4	74.4	74.4	59	59.1	1	4	315	0.00	29.987 
18:35	74.2	74.2	74.2	59	58.9	1	5	338	0.00	29.987 
18:40	74.0	74.0	74.0	59	58.7	1	4	158	0.00	29.987 
18:45	73.9	73.9	73.9	59	58.7	1	4	158	0.00	29.987 
18:50	73.7	73.7	73.7	59	58.5	2	6	270	0.00	29.987 
18:55	73.5	73.5	73.5	59	58.3	2	5	112	0.00	29.987 
19:00	73.5	73.5	73.5	60	58.7	0	5	112	0.00	29.993 
19:05	73.5	73.5	73.5	62	59.7	0	2	90	0.00	29.993 
19:10	73.5	73.5	73.5	61	59.2	0	5	112	0.00	29.993 
19:15	73.5	73.5	73.5	59	58.3	1	6	315	0.00	29.990 
19:20	73.7	73.7	73.7	58	58.0	1	4	270	0.00	29.990 
19:25	73.7	73.7	73.7	58	58.0	1	4	202	0.00	29.990 
19:30	73.7	73.7	73.7	58	58.0	1	4	270	0.00	29.995 
19:35	73.9	73.9	73.9	58	58.2	1	3	270	0.00	29.995 
19:40	73.9	73.9	73.9	58	58.2	1	5	45	0.00	29.995 
19:45	73.5	73.5	73.5	60	58.7	1	3	45	0.00	30.000 
19:50	73.5	73.5	73.5	59	58.3	0	2	45	0.00	30.000 
19:55	73.3	73.3	73.3	60	58.6	0	2	45	0.00	30.000 
20:00	73.2	73.2	73.2	60	58.5	0	2	45	0.00	30.001 
20:05	72.8	72.8	72.8	61	58.6	0	3	45	0.00	30.001 
20:10	72.7	72.7	72.7	60	58.0	0	3	90	0.00	30.001 
20:15	72.5	72.5	72.5	59	57.3	1	4	90	0.00	30.005 
20:20	72.3	72.3	72.3	59	57.2	1	3	90	0.00	30.005 
20:25	72.1	72.1	72.1	59	57.0	1	5	90	0.00	30.005 
20:30	72.0	72.0	72.0	60	57.3	0	3	90	0.00	30.002 
20:35	71.8	71.8	71.8	61	57.6	0	1	90	0.00	30.002 
20:40	71.5	71.5	71.5	61	57.3	0	1	90	0.00	30.002 
20:45	71.1	71.1	71.1	61	57.0	0	0	---	0.00	30.009 
20:50	70.9	70.9	70.9	62	57.2	0	0	---	0.00	30.009 
20:55	70.6	70.6	70.6	62	56.9	0	0	---	0.00	30.009 
21:00	70.4	70.4	70.4	62	56.7	0	0	---	0.00	30.012 
21:05	70.3	70.3	70.3	63	57.1	0	1	90	0.00	30.012 
21:10	69.9	69.9	69.9	63	56.7	0	1	90	0.00	30.012 
21:15	69.8	69.8	69.8	63	56.6	0	1	90	0.00	30.015 
21:20	69.8	69.8	69.8	64	57.1	0	1	90	0.00	30.015 
21:25	69.6	69.6	69.6	64	56.9	0	1	90	0.00	30.015 
21:30	69.4	69.4	69.4	64	56.7	0	1	90	0.00	30.019 
21:35	69.1	69.1	69.1	64	56.4	0	0	---	0.00	30.019 
21:40	68.9	68.9	68.9	65	56.6	0	0	---	0.00	30.019 
21:45	68.6	68.6	68.6	65	56.4	0	0	---	0.00	30.021 
21:50	68.4	68.4	68.4	65	56.2	0	0	---	0.00	30.021 
21:55	68.1	68.1	68.1	66	56.3	0	0	---	0.00	30.021 
22:00	67.9	67.9	67.9	66	56.1	0	0	---	0.00	30.028 
22:05	67.6	67.6	67.6	67	56.2	0	0	---	0.00	30.028 
22:10	67.6	67.6	67.6	67	56.2	0	0	---	0.00	30.028 
22:15	67.4	67.4	67.4	68	56.5	0	0	---	0.00	30.027 
22:20	67.3	67.3	67.3	68	56.4	0	0	---	0.00	30.027 
22:25	67.1	67.1	67.1	69	56.6	0	0	---	0.00	30.027 
22:30	66.9	66.9	66.9	69	56.4	0	0	---	0.00	30.027 
22:35	66.6	66.6	66.6	72	57.3	0	3	90	0.00	30.027 
22:40	66.3	66.3	66.3	73	57.4	0	1	90	0.00	30.027 
22:45	66.3	66.3	66.3	73	57.4	0	0	---	0.00	30.033 
22:50	66.1	66.1	66.1	74	57.6	0	0	---	0.00	30.033 
22:55	66.0	66.0	66.0	74	57.5	0	0	---	0.00	30.033 
23:00	65.8	65.8	65.8	73	56.9	0	0	---	0.00	30.030 
23:05	65.6	65.6	65.6	73	56.7	0	0	---	0.00	30.030 
23:10	65.5	65.5	65.5	74	57.0	0	0	---	0.00	30.030 
23:15	65.3	65.3	65.3	74	56.8	0	0	---	0.00	30.026 
23:20	65.2	65.2	65.2	74	56.7	0	0	---	0.00	30.026 
23:25	65.0	65.0	65.0	75	56.9	0	0	---	0.00	30.026 
23:30	64.8	64.8	64.8	75	56.7	0	0	---	0.00	30.025 
23:35	64.8	64.8	64.8	77	57.4	0	0	---	0.00	30.025 
23:40	64.8	64.8	64.8	77	57.4	0	2	90	0.00	30.025 
23:45	64.8	64.8	64.8	77	57.4	0	2	90	0.00	30.033 
23:50	65.2	65.2	65.2	77	57.8	0	1	90	0.00	30.033 
23:55	65.5	65.5	65.5	78	58.5	0	2	90	0.00	30.033 

CoCoRaHS
IN-AL-39
A2 Web Hosting
Creative Commons License
GoDaddy
search engine by freefind advanced

loaded 2018-11-15 05:24:16 • last modified 2010-11-18 10:43:29
Privacy PolicyDisclaimer
• wx.awcolley.com is powered by PmWiki v.2002016 •
• all content (unless otherwise noted) © 2018 A W Colley